This is the latest recevied weather packets stored in our database for station/object OE3WYC-1. If no packets are shown the sender has not sent any weather packets the latest 10 day(s).
| Time | Temp. | Humidity | Pressure | Rain* | Wind** | Luminosity | Snow |
|---|---|---|---|---|---|---|---|
| 1777264206 | 6.11° C | 67% | 1023.4 hPa | 0 mm | - | - | - |
| 1777263905 | 6.11° C | 67% | 1023.2 hPa | 0 mm | - | - | - |
| 1777261205 | 6.67° C | 65% | 1023 hPa | 0 mm | - | - | - |
| 1777260305 | 6.67° C | 65% | 1023 hPa | 0 mm | - | - | - |
| 1777259407 | 7.22° C | 64% | 1023 hPa | 0 mm | - | - | - |
| 1777258206 | 7.22° C | 63% | 1023.1 hPa | 0 mm | - | - | - |
| 1777257305 | 7.78° C | 62% | 1023.2 hPa | 0 mm | - | - | - |
| 1777257006 | 7.78° C | 62% | 1023.3 hPa | 0 mm | - | - | - |
| 1777248905 | 8.33° C | 57% | 1023.5 hPa | 0 mm | - | - | - |
| 1777246805 | 8.89° C | 58% | 1023.7 hPa | 0 mm | - | - | - |
| 1777246506 | 8.89° C | 57% | 1023.6 hPa | 0 mm | - | - | - |
| 1777245605 | 8.89° C | 57% | 1023.5 hPa | 0 mm | - | - | - |
| 1777244405 | 8.89° C | 57% | 1023.5 hPa | 0 mm | - | - | - |
| 1777243805 | 9.44° C | 57% | 1023.4 hPa | 0 mm | - | - | - |
| 1777243207 | 9.44° C | 57% | 1023.5 hPa | 0 mm | - | - | - |
| 1777242606 | 9.44° C | 56% | 1023.5 hPa | 0 mm | - | - | - |
| 1777241406 | 9.44° C | 54% | 1023.2 hPa | 0 mm | - | - | - |
| 1777236905 | 11.11° C | 47% | 1023.1 hPa | 0 mm | - | - | - |
| 1777232105 | 12.78° C | 41% | 1022.6 hPa | 0 mm | - | - | - |
| 1777230906 | 13.33° C | 40% | 1022.2 hPa | 0 mm | - | - | - |
| 1777230305 | 13.33° C | 39% | 1022.2 hPa | 0 mm | - | - | - |
| 1777228806 | 13.89° C | 38% | 1021.8 hPa | 0 mm | - | - | - |
| 1777226406 | 14.44° C | 35% | 1021.1 hPa | 0 mm | - | - | - |
| 1777224905 | 15.56° C | 33% | 1020.8 hPa | 0 mm | - | - | - |
| 1777223105 | 16.11° C | 31% | 1020.6 hPa | 0 mm | - | - | - |
* Rain latest hour (hover to see other rain measurements)
** Current wind speed in m/s (hover to see current wind gust speed)